sensor_id;sensor_type;location;lat;lon;timestamp;pressure;altitude;pressure_sealevel;temperature;humidity
60061;BME280;45933;51.336;12.612;2023-05-25T00:01:27;100644.13;;;11.13;53.96
60061;BME280;45933;51.336;12.612;2023-05-25T00:03:52;100648.47;;;11.10;53.79
60061;BME280;45933;51.336;12.612;2023-05-25T00:06:19;100653.69;;;11.08;53.45
60061;BME280;45933;51.336;12.612;2023-05-25T00:08:45;100649.34;;;11.04;53.43
60061;BME280;45933;51.336;12.612;2023-05-25T00:11:10;100657.16;;;11.03;53.69
60061;BME280;45933;51.336;12.612;2023-05-25T00:13:37;100651.06;;;10.99;53.81
60061;BME280;45933;51.336;12.612;2023-05-25T00:16:03;100648.44;;;10.96;53.51
60061;BME280;45933;51.336;12.612;2023-05-25T00:18:28;100644.09;;;10.93;53.87
60061;BME280;45933;51.336;12.612;2023-05-25T00:20:53;100653.66;;;10.90;53.82
60061;BME280;45933;51.336;12.612;2023-05-25T00:23:19;100662.34;;;10.84;54.10
60061;BME280;45933;51.336;12.612;2023-05-25T00:25:45;100653.66;;;10.82;54.28
60061;BME280;45933;51.336;12.612;2023-05-25T00:28:10;100657.97;;;10.80;53.76
60061;BME280;45933;51.336;12.612;2023-05-25T00:30:36;100661.44;;;10.78;54.04
60061;BME280;45933;51.336;12.612;2023-05-25T00:33:01;100661.47;;;10.76;54.64
60061;BME280;45933;51.336;12.612;2023-05-25T00:35:27;100661.44;;;10.71;54.23
60061;BME280;45933;51.336;12.612;2023-05-25T00:37:52;100666.63;;;10.70;54.50
60061;BME280;45933;51.336;12.612;2023-05-25T00:40:18;100666.63;;;10.68;54.89
60061;BME280;45933;51.336;12.612;2023-05-25T00:42:43;100671.84;;;10.67;54.53
60061;BME280;45933;51.336;12.612;2023-05-25T00:45:09;100671.81;;;10.64;54.65
60061;BME280;45933;51.336;12.612;2023-05-25T00:47:35;100665.75;;;10.62;54.75
60061;BME280;45933;51.336;12.612;2023-05-25T00:50:00;100664.00;;;10.59;54.43
60061;BME280;45933;51.336;12.612;2023-05-25T00:52:26;100663.13;;;10.56;54.20
60061;BME280;45933;51.336;12.612;2023-05-25T00:54:53;100675.28;;;10.55;54.54
60061;BME280;45933;51.336;12.612;2023-05-25T00:57:21;100666.59;;;10.55;54.29
60061;BME280;45933;51.336;12.612;2023-05-25T00:59:50;100676.13;;;10.53;54.81
60061;BME280;45933;51.336;12.612;2023-05-25T01:02:18;100670.91;;;10.48;55.12
60061;BME280;45933;51.336;12.612;2023-05-25T01:04:48;100676.09;;;10.48;54.58
60061;BME280;45933;51.336;12.612;2023-05-25T01:07:20;100677.84;;;10.44;54.66
60061;BME280;45933;51.336;12.612;2023-05-25T01:09:47;100671.75;;;10.42;54.59
60061;BME280;45933;51.336;12.612;2023-05-25T01:12:15;100670.88;;;10.40;54.93
60061;BME280;45933;51.336;12.612;2023-05-25T01:14:41;100671.72;;;10.38;54.38
60061;BME280;45933;51.336;12.612;2023-05-25T01:17:08;100669.13;;;10.36;54.55
60061;BME280;45933;51.336;12.612;2023-05-25T01:19:34;100665.63;;;10.33;55.16
60061;BME280;45933;51.336;12.612;2023-05-25T01:22:06;100666.47;;;10.32;55.03
60061;BME280;45933;51.336;12.612;2023-05-25T01:24:43;100669.97;;;10.32;54.44
60061;BME280;45933;51.336;12.612;2023-05-25T01:29:48;100675.16;;;10.25;54.66
60061;BME280;45933;51.336;12.612;2023-05-25T01:32:14;100673.34;;;10.22;55.27
60061;BME280;45933;51.336;12.612;2023-05-25T01:34:42;100671.63;;;10.18;55.14
60061;BME280;45933;51.336;12.612;2023-05-25T01:37:08;100675.91;;;10.16;55.54
60061;BME280;45933;51.336;12.612;2023-05-25T01:39:37;100672.44;;;10.15;55.52
60061;BME280;45933;51.336;12.612;2023-05-25T01:42:02;100673.31;;;10.13;55.54
60061;BME280;45933;51.336;12.612;2023-05-25T01:44:28;100670.69;;;10.10;55.58
60061;BME280;45933;51.336;12.612;2023-05-25T01:47:02;100669.84;;;10.12;55.23
60061;BME280;45933;51.336;12.612;2023-05-25T01:49:41;100675.88;;;10.04;55.65
60061;BME280;45933;51.336;12.612;2023-05-25T01:52:18;100669.81;;;10.09;55.12
60061;BME280;45933;51.336;12.612;2023-05-25T01:54:54;100674.13;;;10.06;55.11
60061;BME280;45933;51.336;12.612;2023-05-25T01:57:22;100666.28;;;9.97;55.70
60061;BME280;45933;51.336;12.612;2023-05-25T01:59:50;100675.78;;;9.96;55.54
60061;BME280;45933;51.336;12.612;2023-05-25T02:02:17;100674.06;;;9.92;55.60
60061;BME280;45933;51.336;12.612;2023-05-25T02:04:43;100671.41;;;9.87;55.88
60061;BME280;45933;51.336;12.612;2023-05-25T02:07:08;100673.13;;;9.84;56.08
60061;BME280;45933;51.336;12.612;2023-05-25T02:09:34;100675.72;;;9.82;55.41
60061;BME280;45933;51.336;12.612;2023-05-25T02:11:59;100676.56;;;9.80;55.73
60061;BME280;45933;51.336;12.612;2023-05-25T02:14:24;100677.41;;;9.76;55.43
60061;BME280;45933;51.336;12.612;2023-05-25T02:16:50;100677.38;;;9.73;55.37
60061;BME280;45933;51.336;12.612;2023-05-25T02:19:15;100677.38;;;9.71;55.63
60061;BME280;45933;51.336;12.612;2023-05-25T02:21:41;100673.00;;;9.67;55.91
60061;BME280;45933;51.336;12.612;2023-05-25T02:24:06;100672.09;;;9.63;55.84
60061;BME280;45933;51.336;12.612;2023-05-25T02:26:37;100672.09;;;9.62;55.70
60061;BME280;45933;51.336;12.612;2023-05-25T02:29:03;100670.31;;;9.58;55.57
60061;BME280;45933;51.336;12.612;2023-05-25T02:31:28;100670.31;;;9.55;55.87
60061;BME280;45933;51.336;12.612;2023-05-25T02:33:54;100673.75;;;9.54;55.98
60061;BME280;45933;51.336;12.612;2023-05-25T02:36:19;100669.41;;;9.51;55.87
60061;BME280;45933;51.336;12.612;2023-05-25T02:38:45;100670.25;;;9.49;56.16
60061;BME280;45933;51.336;12.612;2023-05-25T02:41:14;100671.09;;;9.45;56.18
60061;BME280;45933;51.336;12.612;2023-05-25T02:43:40;100665.88;;;9.43;55.96
60061;BME280;45933;51.336;12.612;2023-05-25T02:46:05;100666.72;;;9.42;56.25
60061;BME280;45933;51.336;12.612;2023-05-25T02:48:30;100664.13;;;9.39;55.97
60061;BME280;45933;51.336;12.612;2023-05-25T02:50:55;100662.34;;;9.36;56.14
60061;BME280;45933;51.336;12.612;2023-05-25T02:53:21;100660.63;;;9.35;56.82
60061;BME280;45933;51.336;12.612;2023-05-25T02:55:46;100662.34;;;9.35;57.00
60061;BME280;45933;51.336;12.612;2023-05-25T02:58:11;100663.16;;;9.31;56.35
60061;BME280;45933;51.336;12.612;2023-05-25T03:00:36;100670.09;;;9.29;56.15
60061;BME280;45933;51.336;12.612;2023-05-25T03:03:02;100661.38;;;9.27;56.88
60061;BME280;45933;51.336;12.612;2023-05-25T03:05:46;100666.53;;;9.22;57.45
60061;BME280;45933;51.336;12.612;2023-05-25T03:08:12;100675.22;;;9.21;56.77
60061;BME280;45933;51.336;12.612;2023-05-25T03:10:40;100674.38;;;9.25;56.89
60061;BME280;45933;51.336;12.612;2023-05-25T03:13:05;100678.69;;;9.22;57.07
60061;BME280;45933;51.336;12.612;2023-05-25T03:15:31;100683.88;;;9.22;57.19
60061;BME280;45933;51.336;12.612;2023-05-25T03:17:56;100683.88;;;9.20;56.98
60061;BME280;45933;51.336;12.612;2023-05-25T03:20:26;100677.81;;;9.18;57.65
60061;BME280;45933;51.336;12.612;2023-05-25T03:22:51;100682.13;;;9.18;57.38
60061;BME280;45933;51.336;12.612;2023-05-25T03:25:16;100678.63;;;9.17;57.96
60061;BME280;45933;51.336;12.612;2023-05-25T03:27:42;100677.75;;;9.15;57.50
60061;BME280;45933;51.336;12.612;2023-05-25T03:30:07;100684.69;;;9.16;57.99
60061;BME280;45933;51.336;12.612;2023-05-25T03:32:33;100682.09;;;9.14;57.70
60061;BME280;45933;51.336;12.612;2023-05-25T03:34:58;100686.44;;;9.15;58.20
60061;BME280;45933;51.336;12.612;2023-05-25T03:37:23;100698.56;;;9.13;57.79
60061;BME280;45933;51.336;12.612;2023-05-25T03:39:49;100693.38;;;9.16;58.24
60061;BME280;45933;51.336;12.612;2023-05-25T03:42:14;100702.03;;;9.15;58.33
60061;BME280;45933;51.336;12.612;2023-05-25T03:44:43;100697.75;;;9.21;58.23
60061;BME280;45933;51.336;12.612;2023-05-25T03:47:08;100698.56;;;9.16;58.45
60061;BME280;45933;51.336;12.612;2023-05-25T03:49:33;100704.69;;;9.19;58.78
60061;BME280;45933;51.336;12.612;2023-05-25T03:51:59;100709.03;;;9.18;59.04
60061;BME280;45933;51.336;12.612;2023-05-25T03:54:25;100715.94;;;9.18;58.86
60061;BME280;45933;51.336;12.612;2023-05-25T03:56:50;100717.69;;;9.19;58.87
60061;BME280;45933;51.336;12.612;2023-05-25T03:59:16;100709.03;;;9.20;58.88
60061;BME280;45933;51.336;12.612;2023-05-25T04:01:42;100715.97;;;9.21;59.50
60061;BME280;45933;51.336;12.612;2023-05-25T04:04:08;100716.00;;;9.25;59.14
60061;BME280;45933;51.336;12.612;2023-05-25T04:06:33;100716.88;;;9.26;59.49
60061;BME280;45933;51.336;12.612;2023-05-25T04:09:01;100711.69;;;9.27;59.51
60061;BME280;45933;51.336;12.612;2023-05-25T04:11:28;100720.41;;;9.29;59.54
60061;BME280;45933;51.336;12.612;2023-05-25T04:13:53;100714.38;;;9.33;59.26
60061;BME280;45933;51.336;12.612;2023-05-25T04:16:19;100728.25;;;9.37;60.04
60061;BME280;45933;51.336;12.612;2023-05-25T04:18:45;100727.44;;;9.39;60.10
60061;BME280;45933;51.336;12.612;2023-05-25T04:21:10;100737.91;;;9.46;60.23
60061;BME280;45933;51.336;12.612;2023-05-25T04:23:36;100738.81;;;9.49;60.19
60061;BME280;45933;51.336;12.612;2023-05-25T04:26:01;100740.59;;;9.56;60.47
60061;BME280;45933;51.336;12.612;2023-05-25T04:28:27;100738.91;;;9.61;60.51
60061;BME280;45933;51.336;12.612;2023-05-25T04:30:52;100740.69;;;9.68;60.76
60061;BME280;45933;51.336;12.612;2023-05-25T04:33:21;100740.78;;;9.76;60.73
60061;BME280;45933;51.336;12.612;2023-05-25T04:35:46;100733.88;;;9.83;60.93
60061;BME280;45933;51.336;12.612;2023-05-25T04:38:14;100740.91;;;9.91;60.77
60061;BME280;45933;51.336;12.612;2023-05-25T04:40:41;100730.53;;;9.98;61.69
60061;BME280;45933;51.336;12.612;2023-05-25T04:43:07;100733.16;;;10.04;61.43
60061;BME280;45933;51.336;12.612;2023-05-25T04:45:33;100734.06;;;10.10;61.49
60061;BME280;45933;51.336;12.612;2023-05-25T04:47:59;100739.31;;;10.16;60.97
60061;BME280;45933;51.336;12.612;2023-05-25T04:50:25;100737.63;;;10.20;60.83
60061;BME280;45933;51.336;12.612;2023-05-25T04:52:50;100737.69;;;10.26;61.43
60061;BME280;45933;51.336;12.612;2023-05-25T04:55:16;100738.59;;;10.28;60.77
60061;BME280;45933;51.336;12.612;2023-05-25T04:57:41;100741.19;;;10.33;60.87
60061;BME280;45933;51.336;12.612;2023-05-25T05:00:07;100737.75;;;10.37;60.41
60061;BME280;45933;51.336;12.612;2023-05-25T05:02:34;100740.38;;;10.41;61.01
60061;BME280;45933;51.336;12.612;2023-05-25T05:04:59;100743.88;;;10.46;60.75
60061;BME280;45933;51.336;12.612;2023-05-25T05:07:25;100738.69;;;10.50;60.81
60061;BME280;45933;51.336;12.612;2023-05-25T05:09:50;100738.69;;;10.54;60.40
60061;BME280;45933;51.336;12.612;2023-05-25T05:12:15;100741.34;;;10.57;61.28
60061;BME280;45933;51.336;12.612;2023-05-25T05:14:41;100744.84;;;10.61;61.50
60061;BME280;45933;51.336;12.612;2023-05-25T05:17:06;100740.50;;;10.69;61.28
60061;BME280;45933;51.336;12.612;2023-05-25T05:19:32;100736.19;;;10.74;61.77
60061;BME280;45933;51.336;12.612;2023-05-25T05:21:57;100746.63;;;10.80;61.72
60061;BME280;45933;51.336;12.612;2023-05-25T05:24:22;100752.75;;;10.85;61.75
60061;BME280;45933;51.336;12.612;2023-05-25T05:26:48;100752.75;;;10.91;62.02
60061;BME280;45933;51.336;12.612;2023-05-25T05:29:13;100758.91;;;10.99;62.18
60061;BME280;45933;51.336;12.612;2023-05-25T05:31:39;100759.78;;;11.06;62.01
60061;BME280;45933;51.336;12.612;2023-05-25T05:34:04;100763.28;;;11.14;62.22
60061;BME280;45933;51.336;12.612;2023-05-25T05:36:29;100773.75;;;11.20;62.24
60061;BME280;45933;51.336;12.612;2023-05-25T05:38:57;100772.91;;;11.29;62.12
60061;BME280;45933;51.336;12.612;2023-05-25T05:41:22;100773.78;;;11.37;62.49
60061;BME280;45933;51.336;12.612;2023-05-25T05:43:48;100776.41;;;11.45;62.88
60061;BME280;45933;51.336;12.612;2023-05-25T05:46:13;100779.03;;;11.59;62.77
60061;BME280;45933;51.336;12.612;2023-05-25T05:48:38;100773.81;;;11.69;62.47
60061;BME280;45933;51.336;12.612;2023-05-25T05:51:04;100779.09;;;11.83;62.40
60061;BME280;45933;51.336;12.612;2023-05-25T05:53:30;100773.88;;;11.92;62.04
60061;BME280;45933;51.336;12.612;2023-05-25T05:55:57;100792.16;;;12.04;61.93
60061;BME280;45933;51.336;12.612;2023-05-25T05:58:24;100786.91;;;12.17;62.08
60061;BME280;45933;51.336;12.612;2023-05-25T06:00:51;100785.19;;;12.29;61.54
60061;BME280;45933;51.336;12.612;2023-05-25T06:03:17;100790.38;;;12.42;61.29
60061;BME280;45933;51.336;12.612;2023-05-25T06:05:42;100786.88;;;12.50;61.84
60061;BME280;45933;51.336;12.612;2023-05-25T06:08:07;100790.34;;;12.62;60.68
60061;BME280;45933;51.336;12.612;2023-05-25T06:10:34;100794.66;;;12.70;61.51
60061;BME280;45933;51.336;12.612;2023-05-25T06:13:00;100791.16;;;12.79;60.93
60061;BME280;45933;51.336;12.612;2023-05-25T06:15:25;100796.38;;;12.87;60.43
60061;BME280;45933;51.336;12.612;2023-05-25T06:17:50;100791.13;;;12.93;60.66
60061;BME280;45933;51.336;12.612;2023-05-25T06:20:15;100790.22;;;12.95;60.67
60061;BME280;45933;51.336;12.612;2023-05-25T06:22:41;100787.59;;;13.03;60.32
60061;BME280;45933;51.336;12.612;2023-05-25T06:25:06;100779.69;;;13.06;60.28
60061;BME280;45933;51.336;12.612;2023-05-25T06:27:34;100782.31;;;13.07;60.82
60061;BME280;45933;51.336;12.612;2023-05-25T06:30:00;100785.81;;;13.09;60.61
60061;BME280;45933;51.336;12.612;2023-05-25T06:32:25;100781.41;;;13.15;61.02
60061;BME280;45933;51.336;12.612;2023-05-25T06:34:50;100784.88;;;13.20;61.26
60061;BME280;45933;51.336;12.612;2023-05-25T06:37:16;100785.75;;;13.22;60.67
60061;BME280;45933;51.336;12.612;2023-05-25T06:39:41;100790.13;;;13.26;60.95
60061;BME280;45933;51.336;12.612;2023-05-25T06:42:08;100781.38;;;13.27;61.16
60061;BME280;45933;51.336;12.612;2023-05-25T06:44:33;100776.97;;;13.33;61.02
60061;BME280;45933;51.336;12.612;2023-05-25T06:46:58;100774.31;;;13.41;60.89
60061;BME280;45933;51.336;12.612;2023-05-25T06:49:24;100775.16;;;13.46;60.87
60061;BME280;45933;51.336;12.612;2023-05-25T06:51:49;100776.84;;;13.56;61.02
60061;BME280;45933;51.336;12.612;2023-05-25T06:54:15;100781.16;;;13.64;61.11
60061;BME280;45933;51.336;12.612;2023-05-25T06:56:40;100788.09;;;13.72;60.63
60061;BME280;45933;51.336;12.612;2023-05-25T06:59:06;100782.75;;;13.83;60.78
60061;BME280;45933;51.336;12.612;2023-05-25T07:01:31;100793.13;;;13.95;60.48
60061;BME280;45933;51.336;12.612;2023-05-25T07:03:56;100785.19;;;14.04;60.68
60061;BME280;45933;51.336;12.612;2023-05-25T07:06:21;100788.63;;;14.14;59.92
60061;BME280;45933;51.336;12.612;2023-05-25T07:08:47;100782.44;;;14.21;59.97
60061;BME280;45933;51.336;12.612;2023-05-25T07:11:12;100785.84;;;14.29;60.34
60061;BME280;45933;51.336;12.612;2023-05-25T07:13:38;100790.13;;;14.38;59.91
60061;BME280;45933;51.336;12.612;2023-05-25T07:16:04;100788.28;;;14.45;59.80
60061;BME280;45933;51.336;12.612;2023-05-25T07:18:29;100788.25;;;14.55;59.91
60061;BME280;45933;51.336;12.612;2023-05-25T07:20:54;100793.38;;;14.66;59.95
60061;BME280;45933;51.336;12.612;2023-05-25T07:23:20;100788.84;;;14.79;59.68
60061;BME280;45933;51.336;12.612;2023-05-25T07:25:45;100787.78;;;14.95;59.74
60061;BME280;45933;51.336;12.612;2023-05-25T07:28:10;100788.50;;;15.06;59.32
60061;BME280;45933;51.336;12.612;2023-05-25T07:30:36;100791.88;;;15.19;58.91
60061;BME280;45933;51.336;12.612;2023-05-25T07:33:01;100792.59;;;15.30;58.55
60061;BME280;45933;51.336;12.612;2023-05-25T07:35:26;100793.28;;;15.41;58.61
60061;BME280;45933;51.336;12.612;2023-05-25T07:37:56;100796.59;;;15.56;58.22
60061;BME280;45933;51.336;12.612;2023-05-25T07:40:22;100787.66;;;15.69;58.71
60061;BME280;45933;51.336;12.612;2023-05-25T07:42:47;100781.34;;;15.82;56.95
60061;BME280;45933;51.336;12.612;2023-05-25T07:45:12;100784.59;;;15.97;57.88
60061;BME280;45933;51.336;12.612;2023-05-25T07:47:37;100784.38;;;16.10;57.15
60061;BME280;45933;51.336;12.612;2023-05-25T07:50:03;100782.34;;;16.26;57.85
60061;BME280;45933;51.336;12.612;2023-05-25T07:52:28;100780.38;;;16.37;56.27
60061;BME280;45933;51.336;12.612;2023-05-25T07:54:54;100781.78;;;16.55;55.82
60061;BME280;45933;51.336;12.612;2023-05-25T07:57:19;100788.56;;;16.71;56.89
60061;BME280;45933;51.336;12.612;2023-05-25T07:59:44;100787.22;;;16.92;55.88
60061;BME280;45933;51.336;12.612;2023-05-25T08:02:10;100782.41;;;17.14;55.71
60061;BME280;45933;51.336;12.612;2023-05-25T08:04:35;100782.84;;;17.35;55.01
60061;BME280;45933;51.336;12.612;2023-05-25T08:07:01;100786.81;;;17.52;52.34
60061;BME280;45933;51.336;12.612;2023-05-25T08:09:26;100790.78;;;17.70;51.66
60061;BME280;45933;51.336;12.612;2023-05-25T08:11:51;100787.00;;;17.84;52.22
60061;BME280;45933;51.336;12.612;2023-05-25T08:14:17;100782.84;;;18.09;52.55
60061;BME280;45933;51.336;12.612;2023-05-25T08:16:42;100780.69;;;18.25;51.62
60061;BME280;45933;51.336;12.612;2023-05-25T08:19:07;100785.56;;;18.39;50.16
60061;BME280;45933;51.336;12.612;2023-05-25T08:21:33;100789.81;;;18.46;47.85
60061;BME280;45933;51.336;12.612;2023-05-25T08:23:59;100784.06;;;18.61;49.12
60061;BME280;45933;51.336;12.612;2023-05-25T08:26:28;100786.56;;;18.69;47.45
60061;BME280;45933;51.336;12.612;2023-05-25T08:28:53;100783.56;;;18.81;48.22
60061;BME280;45933;51.336;12.612;2023-05-25T08:31:18;100776.03;;;18.98;48.86
60061;BME280;45933;51.336;12.612;2023-05-25T08:33:44;100775.75;;;19.07;48.70
60061;BME280;45933;51.336;12.612;2023-05-25T08:36:09;100778.78;;;19.25;47.13
60061;BME280;45933;51.336;12.612;2023-05-25T08:38:35;100785.59;;;19.32;46.10
60061;BME280;45933;51.336;12.612;2023-05-25T08:41:05;100786.19;;;19.42;44.43
60061;BME280;45933;51.336;12.612;2023-05-25T08:43:32;100794.84;;;19.45;45.52
60061;BME280;45933;51.336;12.612;2023-05-25T08:46:04;100794.84;;;19.47;45.44
60061;BME280;45933;51.336;12.612;2023-05-25T08:48:32;100792.19;;;19.47;44.69
60061;BME280;45933;51.336;12.612;2023-05-25T08:51:01;100792.19;;;19.47;44.33
60061;BME280;45933;51.336;12.612;2023-05-25T08:53:29;100792.41;;;19.39;43.77
60061;BME280;45933;51.336;12.612;2023-05-25T08:55:59;100792.66;;;19.31;43.79
60061;BME280;45933;51.336;12.612;2023-05-25T08:58:30;100794.44;;;19.31;44.45
60061;BME280;45933;51.336;12.612;2023-05-25T09:01:02;100803.97;;;19.37;44.85
60061;BME280;45933;51.336;12.612;2023-05-25T09:03:28;100793.47;;;19.33;44.06
60061;BME280;45933;51.336;12.612;2023-05-25T09:05:55;100804.91;;;19.34;42.64
60061;BME280;45933;51.336;12.612;2023-05-25T09:08:21;100801.13;;;19.43;43.06
60061;BME280;45933;51.336;12.612;2023-05-25T09:10:47;100803.44;;;19.53;44.34
60061;BME280;45933;51.336;12.612;2023-05-25T09:13:14;100806.84;;;19.57;43.68
60061;BME280;45933;51.336;12.612;2023-05-25T09:15:39;100805.44;;;19.75;44.68
60061;BME280;45933;51.336;12.612;2023-05-25T09:18:04;100803.06;;;19.94;43.27
60061;BME280;45933;51.336;12.612;2023-05-25T09:20:30;100804.50;;;20.04;43.17
60061;BME280;45933;51.336;12.612;2023-05-25T09:22:56;100800.28;;;20.23;42.73
60061;BME280;45933;51.336;12.612;2023-05-25T09:25:23;100802.56;;;20.34;42.26
60061;BME280;45933;51.336;12.612;2023-05-25T09:27:51;100809.22;;;20.46;41.54
60061;BME280;45933;51.336;12.612;2023-05-25T09:30:17;100812.50;;;20.54;41.66
60061;BME280;45933;51.336;12.612;2023-05-25T09:32:42;100809.59;;;20.61;42.37
60061;BME280;45933;51.336;12.612;2023-05-25T09:35:08;100815.81;;;20.60;41.80
60061;BME280;45933;51.336;12.612;2023-05-25T09:37:35;100812.19;;;20.63;41.99
60061;BME280;45933;51.336;12.612;2023-05-25T09:40:02;100810.34;;;20.65;40.98
60061;BME280;45933;51.336;12.612;2023-05-25T09:42:28;100802.66;;;20.82;42.70
60061;BME280;45933;51.336;12.612;2023-05-25T09:44:53;100817.19;;;20.96;43.20
60061;BME280;45933;51.336;12.612;2023-05-25T09:47:19;100810.31;;;21.13;41.09
60061;BME280;45933;51.336;12.612;2023-05-25T09:49:44;100809.50;;;21.36;42.04
60061;BME280;45933;51.336;12.612;2023-05-25T09:52:11;100809.63;;;21.55;39.75
60061;BME280;45933;51.336;12.612;2023-05-25T09:54:37;100809.84;;;21.73;39.49
60061;BME280;45933;51.336;12.612;2023-05-25T09:57:03;100811.00;;;21.87;39.74
60061;BME280;45933;51.336;12.612;2023-05-25T09:59:30;100810.94;;;21.89;38.38
60061;BME280;45933;51.336;12.612;2023-05-25T10:01:56;100807.28;;;21.91;38.45
60061;BME280;45933;51.336;12.612;2023-05-25T10:04:22;100806.63;;;21.86;38.10
60061;BME280;45933;51.336;12.612;2023-05-25T10:06:48;100812.78;;;21.87;38.75
60061;BME280;45933;51.336;12.612;2023-05-25T10:09:19;100819.13;;;21.83;37.61
60061;BME280;45933;51.336;12.612;2023-05-25T10:11:45;100811.56;;;21.74;37.82
60061;BME280;45933;51.336;12.612;2023-05-25T10:14:13;100809.72;;;21.76;38.12
60061;BME280;45933;51.336;12.612;2023-05-25T10:16:41;100808.59;;;21.81;39.76
60061;BME280;45933;51.336;12.612;2023-05-25T10:19:37;100812.91;;;22.06;39.86
60061;BME280;45933;51.336;12.612;2023-05-25T10:22:19;100807.44;;;22.10;38.39
60061;BME280;45933;51.336;12.612;2023-05-25T10:27:23;100814.75;;;22.26;36.54
60061;BME280;45933;51.336;12.612;2023-05-25T10:29:49;100804.19;;;22.44;37.01
60061;BME280;45933;51.336;12.612;2023-05-25T10:32:17;100803.34;;;22.64;36.44
60061;BME280;45933;51.336;12.612;2023-05-25T10:34:42;100802.78;;;22.77;36.69
60061;BME280;45933;51.336;12.612;2023-05-25T10:37:08;100801.38;;;22.88;35.63
60061;BME280;45933;51.336;12.612;2023-05-25T10:39:34;100800.31;;;22.92;35.03
60061;BME280;45933;51.336;12.612;2023-05-25T10:42:01;100796.59;;;22.96;35.50
60061;BME280;45933;51.336;12.612;2023-05-25T10:44:28;100804.22;;;23.04;34.85
60061;BME280;45933;51.336;12.612;2023-05-25T10:46:54;100806.81;;;23.06;34.82
60061;BME280;45933;51.336;12.612;2023-05-25T10:49:32;100797.69;;;23.11;34.98
60061;BME280;45933;51.336;12.612;2023-05-25T10:51:59;100807.97;;;23.00;34.00
60061;BME280;45933;51.336;12.612;2023-05-25T10:54:32;100803.50;;;23.01;34.34
60061;BME280;45933;51.336;12.612;2023-05-25T10:57:09;100799.19;;;22.98;35.44
60061;BME280;45933;51.336;12.612;2023-05-25T10:59:51;100798.97;;;23.03;35.81
60061;BME280;45933;51.336;12.612;2023-05-25T11:02:19;100803.50;;;23.01;35.23
60061;BME280;45933;51.336;12.612;2023-05-25T11:04:48;100800.03;;;22.99;35.49
60061;BME280;45933;51.336;12.612;2023-05-25T11:07:15;100793.53;;;23.06;34.05
60061;BME280;45933;51.336;12.612;2023-05-25T11:09:42;100791.22;;;23.17;33.78
60061;BME280;45933;51.336;12.612;2023-05-25T11:12:18;100792.75;;;23.41;34.91
60061;BME280;45933;51.336;12.612;2023-05-25T11:15:07;100800.88;;;23.57;35.42
60061;BME280;45933;51.336;12.612;2023-05-25T11:17:43;100791.13;;;23.56;33.16
60061;BME280;45933;51.336;12.612;2023-05-25T11:20:20;100775.47;;;23.69;34.44
60061;BME280;45933;51.336;12.612;2023-05-25T11:22:49;100775.47;;;23.69;32.79
60061;BME280;45933;51.336;12.612;2023-05-25T11:28:02;100776.66;;;23.62;32.67
60061;BME280;45933;51.336;12.612;2023-05-25T11:30:28;100783.38;;;23.52;33.63
60061;BME280;45933;51.336;12.612;2023-05-25T11:32:53;100778.50;;;23.42;33.44
60061;BME280;45933;51.336;12.612;2023-05-25T11:35:24;100779.59;;;23.38;32.52
60061;BME280;45933;51.336;12.612;2023-05-25T11:37:50;100780.44;;;23.39;33.42
60061;BME280;45933;51.336;12.612;2023-05-25T11:40:21;100778.00;;;23.53;34.05
60061;BME280;45933;51.336;12.612;2023-05-25T11:42:46;100771.34;;;23.62;33.31
60061;BME280;45933;51.336;12.612;2023-05-25T11:45:15;100771.66;;;23.92;35.81
60061;BME280;45933;51.336;12.612;2023-05-25T11:47:40;100779.91;;;24.05;34.06
60061;BME280;45933;51.336;12.612;2023-05-25T11:50:06;100771.53;;;24.12;33.92
60061;BME280;45933;51.336;12.612;2023-05-25T11:52:31;100765.03;;;24.18;31.83
60061;BME280;45933;51.336;12.612;2023-05-25T11:54:57;100765.56;;;24.24;32.65
60061;BME280;45933;51.336;12.612;2023-05-25T11:57:24;100765.66;;;24.23;32.39
60061;BME280;45933;51.336;12.612;2023-05-25T11:59:57;100768.41;;;24.21;33.37
60061;BME280;45933;51.336;12.612;2023-05-25T12:02:25;100766.75;;;24.19;32.24
60061;BME280;45933;51.336;12.612;2023-05-25T12:04:58;100764.06;;;24.19;32.54
60061;BME280;45933;51.336;12.612;2023-05-25T12:07:24;100764.25;;;24.16;32.32
60061;BME280;45933;51.336;12.612;2023-05-25T12:09:51;100765.66;;;24.23;33.19
60061;BME280;45933;51.336;12.612;2023-05-25T12:12:16;100759.47;;;24.40;32.54
60061;BME280;45933;51.336;12.612;2023-05-25T12:14:48;100756.44;;;24.47;32.41
60061;BME280;45933;51.336;12.612;2023-05-25T12:17:15;100761.34;;;24.55;31.53
60061;BME280;45933;51.336;12.612;2023-05-25T12:19:42;100763.63;;;24.63;30.72
60061;BME280;45933;51.336;12.612;2023-05-25T12:22:08;100756.50;;;24.79;30.30
60061;BME280;45933;51.336;12.612;2023-05-25T12:24:34;100756.31;;;24.82;29.91
60061;BME280;45933;51.336;12.612;2023-05-25T12:26:59;100745.25;;;24.90;29.76
60061;BME280;45933;51.336;12.612;2023-05-25T12:29:27;100754.72;;;24.95;29.60
60061;BME280;45933;51.336;12.612;2023-05-25T12:32:00;100748.88;;;25.04;30.03
60061;BME280;45933;51.336;12.612;2023-05-25T12:34:27;100745.66;;;25.15;30.38
60061;BME280;45933;51.336;12.612;2023-05-25T12:36:54;100753.31;;;25.21;30.41
60061;BME280;45933;51.336;12.612;2023-05-25T12:41:56;100740.59;;;25.42;30.59
60061;BME280;45933;51.336;12.612;2023-05-25T12:44:23;100737.97;;;25.41;29.84
60061;BME280;45933;51.336;12.612;2023-05-25T12:46:50;100740.63;;;25.56;29.93
60061;BME280;45933;51.336;12.612;2023-05-25T12:49:32;100732.38;;;25.77;29.25
60061;BME280;45933;51.336;12.612;2023-05-25T12:52:00;100730.19;;;25.84;29.00